createdAt,value
2019-04-04T00:00:51.195Z,43.70
2019-04-04T00:03:24.087Z,43.70
2019-04-04T00:05:57.115Z,43.70
2019-04-04T00:08:31.693Z,43.80
2019-04-04T00:11:06.091Z,43.90
2019-04-04T00:13:42.610Z,44.00
2019-04-04T00:16:18.903Z,44.00
2019-04-04T00:18:52.756Z,44.00
2019-04-04T00:21:26.582Z,44.00
2019-04-04T00:23:59.560Z,44.00
2019-04-04T00:26:33.987Z,44.20
2019-04-04T00:29:06.872Z,44.30
2019-04-04T00:31:39.723Z,44.40
2019-04-04T00:34:13.789Z,44.50
2019-04-04T00:36:46.885Z,44.50
2019-04-04T00:39:19.759Z,44.50
2019-04-04T00:41:52.633Z,44.30
2019-04-04T00:44:25.503Z,44.30
2019-04-04T00:46:58.344Z,44.10
2019-04-04T00:49:31.152Z,44.10
2019-04-04T00:52:03.997Z,44.20
2019-04-04T00:54:36.827Z,44.20
2019-04-04T00:57:09.657Z,44.80
2019-04-04T00:59:42.440Z,44.10
2019-04-04T01:02:15.354Z,44.20
2019-04-04T01:04:48.121Z,44.30
2019-04-04T01:07:20.947Z,44.40
2019-04-04T01:09:53.758Z,44.50
2019-04-04T01:12:26.544Z,44.60
2019-04-04T01:15:17.633Z,44.60
2019-04-04T01:17:50.464Z,44.60
2019-04-04T01:20:23.245Z,44.50
2019-04-04T01:22:56.734Z,44.50
2019-04-04T01:25:31.955Z,44.40
2019-04-04T01:28:04.239Z,44.40
2019-04-04T01:30:37.102Z,44.20
2019-04-04T01:33:09.983Z,44.20
2019-04-04T01:35:42.842Z,44.40
2019-04-04T01:38:15.654Z,44.40
2019-04-04T01:40:48.438Z,44.40
2019-04-04T01:43:21.238Z,44.30
2019-04-04T01:45:55.580Z,44.30
2019-04-04T01:48:28.390Z,44.40
2019-04-04T01:51:01.216Z,44.50
2019-04-04T01:53:34.026Z,44.60
2019-04-04T01:56:07.042Z,44.60
2019-04-04T01:58:41.856Z,44.70
2019-04-04T02:01:16.272Z,44.70
2019-04-04T02:03:49.070Z,44.50
2019-04-04T02:06:21.867Z,44.50
2019-04-04T02:08:54.668Z,45.40
2019-04-04T02:11:27.471Z,44.90
2019-04-04T02:14:00.304Z,44.90
2019-04-04T02:16:34.712Z,44.80
2019-04-04T02:19:09.133Z,44.80
2019-04-04T02:21:42.021Z,44.70
2019-04-04T02:24:14.843Z,44.80
2019-04-04T02:26:47.621Z,44.80
2019-04-04T02:29:20.430Z,44.90
2019-04-04T02:31:56.015Z,44.90
2019-04-04T02:34:28.830Z,44.90
2019-04-04T02:37:01.635Z,44.80
2019-04-04T02:39:35.275Z,44.90
2019-04-04T02:42:08.894Z,44.70
2019-04-04T02:44:43.372Z,44.70
2019-04-04T02:47:17.452Z,44.60
2019-04-04T02:49:50.925Z,44.60
2019-04-04T02:52:23.708Z,44.50
2019-04-04T02:54:58.242Z,44.60
2019-04-04T02:57:31.317Z,44.60
2019-04-04T03:00:06.141Z,44.70
2019-04-04T03:02:40.035Z,45.60
2019-04-04T03:05:13.965Z,45.10
2019-04-04T03:07:46.846Z,45.70
2019-04-04T03:10:19.670Z,45.10
2019-04-04T03:12:52.603Z,45.00
2019-04-04T03:15:25.427Z,45.00
2019-04-04T03:17:58.315Z,45.00
2019-04-04T03:20:31.105Z,45.00
2019-04-04T03:23:03.902Z,45.00
2019-04-04T03:25:36.725Z,45.10
2019-04-04T03:28:09.591Z,45.00
2019-04-04T03:30:42.462Z,45.00
2019-04-04T03:33:15.264Z,45.00
2019-04-04T03:35:48.073Z,45.10
2019-04-04T03:38:20.791Z,45.00
2019-04-04T03:40:57.295Z,45.10
2019-04-04T03:43:28.076Z,45.20
2019-04-04T03:46:01.741Z,45.20
2019-04-04T03:48:34.659Z,45.20
2019-04-04T03:51:07.495Z,45.10
2019-04-04T03:53:44.135Z,45.00
2019-04-04T03:56:16.961Z,45.00
2019-04-04T03:58:49.780Z,45.00
2019-04-04T04:01:22.594Z,45.00
2019-04-04T04:03:55.744Z,44.90
2019-04-04T04:06:28.737Z,44.90
2019-04-04T04:09:01.548Z,44.80
2019-04-04T04:11:37.554Z,44.80
2019-04-04T04:14:10.413Z,44.80
2019-04-04T04:16:43.471Z,44.80
2019-04-04T04:19:16.243Z,44.80
2019-04-04T04:21:49.096Z,44.70
2019-04-04T04:24:21.879Z,44.70
2019-04-04T04:26:54.706Z,44.60
2019-04-04T04:29:29.880Z,44.50
2019-04-04T04:32:02.029Z,44.60
2019-04-04T04:34:34.803Z,44.70
2019-04-04T04:37:07.677Z,44.70
2019-04-04T04:39:41.459Z,44.80
2019-04-04T04:42:14.387Z,44.70
2019-04-04T04:44:47.163Z,44.70
2019-04-04T04:47:22.877Z,44.80
2019-04-04T04:49:55.392Z,44.70
2019-04-04T04:52:28.506Z,44.70
2019-04-04T04:55:02.457Z,44.70
2019-04-04T04:57:38.131Z,44.70
2019-04-04T05:00:11.234Z,44.70
2019-04-04T05:02:44.016Z,44.70
2019-04-04T05:05:16.873Z,44.70
2019-04-04T05:07:50.175Z,44.70
2019-04-04T05:10:23.457Z,44.60
2019-04-04T05:12:56.886Z,44.70
2019-04-04T05:15:30.401Z,44.90
2019-04-04T05:18:04.591Z,45.00
2019-04-04T05:20:37.560Z,45.10
2019-04-04T05:23:11.246Z,45.20
2019-04-04T05:25:53.752Z,45.20
2019-04-04T05:28:20.721Z,45.30
2019-04-04T05:30:53.521Z,45.30
2019-04-04T05:33:27.404Z,45.40
2019-04-04T05:36:04.807Z,45.30
2019-04-04T05:38:36.601Z,45.20
2019-04-04T05:41:09.827Z,45.30
2019-04-04T05:43:42.840Z,45.30
2019-04-04T05:46:18.530Z,45.20
2019-04-04T05:48:50.705Z,45.30
2019-04-04T05:51:24.894Z,45.20
2019-04-04T05:53:58.358Z,45.30
2019-04-04T05:56:31.411Z,45.50
2019-04-04T05:59:04.378Z,45.60
2019-04-04T06:01:38.971Z,45.60
2019-04-04T06:04:15.000Z,45.70
2019-04-04T06:06:47.823Z,46.50
2019-04-04T06:09:20.648Z,45.70
2019-04-04T06:11:55.509Z,45.80
2019-04-04T06:14:30.012Z,45.70
2019-04-04T06:17:02.932Z,45.70
2019-04-04T06:19:37.315Z,45.90
2019-04-04T06:22:12.577Z,45.90
2019-04-04T06:24:45.504Z,45.90
2019-04-04T06:27:18.309Z,45.80
2019-04-04T06:29:51.138Z,45.60
2019-04-04T06:32:27.013Z,45.60
2019-04-04T06:34:59.830Z,45.60
2019-04-04T06:37:34.322Z,45.70
2019-04-04T06:40:07.854Z,46.50
2019-04-04T06:42:40.648Z,45.70
2019-04-04T06:45:15.547Z,45.60
2019-04-04T06:47:49.977Z,45.50
2019-04-04T06:50:24.394Z,45.50
2019-04-04T06:52:57.288Z,45.60
2019-04-04T06:55:30.117Z,45.70
2019-04-04T06:58:03.198Z,45.70
2019-04-04T07:00:35.960Z,45.80
2019-04-04T07:03:08.872Z,45.70
2019-04-04T07:05:41.701Z,45.80
2019-04-04T07:08:16.068Z,45.80
2019-04-04T07:10:57.755Z,45.70
2019-04-04T07:13:27.254Z,45.90
2019-04-04T07:16:06.654Z,45.80
2019-04-04T07:18:34.157Z,45.80
2019-04-04T07:21:06.992Z,45.90
2019-04-04T07:23:41.836Z,46.60
2019-04-04T07:26:14.975Z,46.00
2019-04-04T07:28:49.630Z,46.00
2019-04-04T07:31:22.505Z,45.90
2019-04-04T07:33:58.016Z,45.90
2019-04-04T07:36:30.859Z,45.90
2019-04-04T07:39:05.357Z,45.80
2019-04-04T07:41:40.398Z,45.80
2019-04-04T07:44:12.771Z,45.60
2019-04-04T07:46:46.019Z,45.70
2019-04-04T07:49:19.004Z,45.70
2019-04-04T07:51:51.796Z,45.80
2019-04-04T07:54:24.606Z,45.70
2019-04-04T07:56:57.397Z,45.80
2019-04-04T07:59:31.158Z,45.90
2019-04-04T08:02:04.170Z,45.80
2019-04-04T08:04:37.016Z,45.80
2019-04-04T08:07:09.843Z,45.70
2019-04-04T08:09:42.702Z,45.80
2019-04-04T08:12:15.553Z,45.80
2019-04-04T08:14:48.444Z,45.80
2019-04-04T08:17:21.280Z,45.80
2019-04-04T08:19:59.518Z,45.80
2019-04-04T08:22:28.681Z,45.90
2019-04-04T08:25:01.531Z,45.90
2019-04-04T08:27:34.514Z,46.30
2019-04-04T08:30:08.171Z,46.00
2019-04-04T08:32:41.032Z,46.00
2019-04-04T08:35:13.834Z,46.00
2019-04-04T08:37:46.647Z,46.00
2019-04-04T08:40:19.498Z,46.20
2019-04-04T08:42:52.314Z,46.00
2019-04-04T08:45:27.896Z,46.00
2019-04-04T08:48:00.739Z,46.00
2019-04-04T08:50:33.559Z,46.10
2019-04-04T08:53:06.342Z,46.10
2019-04-04T08:55:39.202Z,46.10
2019-04-04T08:58:12.061Z,46.10
2019-04-04T09:00:44.956Z,46.10
2019-04-04T09:03:17.786Z,46.30
2019-04-04T09:05:50.583Z,46.30
2019-04-04T09:08:24.971Z,46.20
2019-04-04T09:10:57.787Z,46.20
2019-04-04T09:13:30.676Z,46.20
2019-04-04T09:16:03.447Z,46.10
2019-04-04T09:18:36.354Z,46.10
2019-04-04T09:21:09.222Z,46.00
2019-04-04T09:23:42.095Z,45.90
2019-04-04T09:26:15.000Z,45.90
2019-04-04T09:28:47.806Z,45.90
2019-04-04T09:31:20.593Z,45.90
2019-04-04T09:33:53.499Z,45.90
2019-04-04T09:36:26.309Z,45.80
2019-04-04T09:39:00.229Z,45.80
2019-04-04T09:41:33.237Z,45.90
2019-04-04T09:44:06.343Z,45.90
2019-04-04T09:46:40.830Z,45.90
2019-04-04T09:49:15.323Z,46.00
2019-04-04T09:51:48.153Z,46.00
2019-04-04T09:54:21.032Z,46.20
2019-04-04T09:56:53.944Z,46.10
2019-04-04T09:59:27.096Z,46.10
2019-04-04T10:02:00.306Z,46.20
2019-04-04T10:04:33.306Z,46.20
2019-04-04T10:07:06.203Z,46.30
2019-04-04T10:09:40.103Z,46.50
2019-04-04T10:12:12.872Z,46.40
2019-04-04T10:14:45.706Z,46.40
2019-04-04T10:17:18.740Z,46.40
2019-04-04T10:19:51.602Z,46.30
2019-04-04T10:22:28.269Z,46.30
2019-04-04T10:25:01.278Z,46.30
2019-04-04T10:27:34.155Z,46.30
2019-04-04T10:30:07.715Z,46.40
2019-04-04T10:32:40.570Z,46.40
2019-04-04T10:35:13.477Z,46.40
2019-04-04T10:37:46.265Z,46.50
2019-04-04T10:40:19.108Z,46.60
2019-04-04T10:42:51.958Z,46.50
2019-04-04T10:45:24.791Z,46.50
2019-04-04T10:47:57.649Z,46.50
2019-04-04T10:50:30.507Z,46.40
2019-04-04T10:53:03.392Z,46.40
2019-04-04T10:55:36.179Z,46.40
2019-04-04T10:58:09.085Z,46.40
2019-04-04T11:00:41.947Z,46.30
2019-04-04T11:03:14.797Z,46.40
2019-04-04T11:05:47.574Z,46.30
2019-04-04T11:08:20.402Z,46.30
2019-04-04T11:10:53.196Z,46.20
2019-04-04T11:13:33.496Z,46.20
2019-04-04T11:16:01.642Z,46.20
2019-04-04T11:18:36.073Z,46.20
2019-04-04T11:21:08.854Z,46.30
2019-04-04T11:23:41.713Z,46.20
2019-04-04T11:26:14.473Z,46.30
2019-04-04T11:28:47.328Z,46.30
2019-04-04T11:31:21.103Z,46.30
2019-04-04T11:33:53.919Z,46.20
2019-04-04T11:36:26.728Z,46.30
2019-04-04T11:39:00.612Z,46.30
2019-04-04T11:41:34.993Z,46.30
2019-04-04T11:44:07.879Z,46.30
2019-04-04T11:46:42.544Z,46.40
2019-04-04T11:49:15.529Z,46.30
2019-04-04T11:51:48.465Z,46.50
2019-04-04T11:54:21.279Z,46.50
2019-04-04T11:56:54.150Z,46.60
2019-04-04T11:59:27.076Z,46.60
2019-04-04T12:02:00.471Z,46.50
2019-04-04T12:04:33.300Z,46.50
2019-04-04T12:07:06.104Z,46.50
2019-04-04T12:09:38.966Z,46.40
2019-04-04T12:12:11.760Z,46.40
2019-04-04T12:14:44.561Z,46.50
2019-04-04T12:17:17.446Z,46.40
2019-04-04T12:19:50.367Z,46.40
2019-04-04T12:22:23.194Z,46.40
2019-04-04T12:24:58.829Z,46.40
2019-04-04T12:27:31.615Z,46.50
2019-04-04T12:30:04.552Z,47.00
2019-04-04T12:32:37.356Z,46.30
2019-04-04T12:35:10.459Z,46.20
2019-04-04T12:37:43.358Z,46.30
2019-04-04T12:40:20.793Z,46.30
2019-04-04T12:42:50.702Z,46.30
2019-04-04T12:45:23.742Z,46.20
2019-04-04T12:47:56.756Z,46.20
2019-04-04T12:50:29.725Z,46.10
2019-04-04T12:53:02.716Z,46.00
2019-04-04T12:55:35.618Z,46.10
2019-04-04T12:58:10.896Z,46.00
2019-04-04T13:00:46.661Z,46.00
2019-04-04T13:03:25.357Z,46.00
2019-04-04T13:06:05.584Z,46.10
2019-04-04T13:08:38.877Z,45.90
2019-04-04T13:11:13.809Z,46.00
2019-04-04T13:13:47.178Z,46.00
2019-04-04T13:16:20.227Z,45.90
2019-04-04T13:18:56.727Z,45.90
2019-04-04T13:21:29.848Z,45.90
2019-04-04T13:24:03.310Z,45.80
2019-04-04T13:26:36.913Z,45.90
2019-04-04T13:29:10.754Z,45.90
2019-04-04T13:31:44.621Z,45.90
2019-04-04T13:34:18.308Z,46.00
2019-04-04T13:37:26.193Z,46.00
2019-04-04T13:40:14.869Z,45.90
2019-04-04T13:43:07.458Z,45.80
2019-04-04T13:45:53.714Z,45.80
2019-04-04T13:48:36.327Z,45.90
2019-04-04T13:51:27.340Z,46.10
2019-04-04T13:54:47.328Z,46.30
2019-04-04T13:57:42.908Z,46.30
2019-04-04T14:00:25.765Z,46.30
2019-04-04T14:03:27.695Z,46.30
2019-04-04T14:06:45.037Z,46.30
2019-04-04T14:09:28.767Z,46.30
2019-04-04T14:12:16.165Z,46.30
2019-04-04T14:14:58.606Z,46.30
2019-04-04T14:17:38.975Z,46.30
2019-04-04T14:20:26.298Z,46.30
2019-04-04T14:23:06.351Z,46.30
2019-04-04T14:25:46.788Z,46.30
2019-04-04T14:28:24.391Z,46.40
2019-04-04T14:31:02.710Z,46.40
2019-04-04T14:33:43.825Z,46.50
2019-04-04T14:36:20.689Z,46.70
2019-04-04T14:39:07.198Z,46.40
2019-04-04T14:42:10.908Z,46.40
2019-04-04T14:45:03.049Z,46.50
2019-04-04T14:47:50.271Z,46.40
2019-04-04T14:50:50.499Z,46.40
2019-04-04T14:54:03.216Z,46.30
2019-04-04T14:57:17.478Z,46.30
2019-04-04T15:00:33.878Z,46.30
2019-04-04T15:03:18.442Z,46.30
2019-04-04T15:06:42.733Z,46.30
2019-04-04T15:09:46.252Z,46.50
2019-04-04T15:12:58.270Z,46.50
2019-04-04T15:16:05.122Z,46.70
2019-04-04T15:18:58.628Z,46.70
2019-04-04T15:21:36.084Z,46.80
2019-04-04T15:24:13.719Z,46.80
2019-04-04T15:26:54.168Z,46.80
2019-04-04T15:29:44.897Z,46.80
2019-04-04T15:32:28.279Z,46.60
2019-04-04T15:35:28.765Z,46.50
2019-04-04T15:38:35.625Z,46.70
2019-04-04T15:41:19.336Z,46.50
2019-04-04T15:44:05.531Z,46.70
2019-04-04T15:46:44.908Z,46.50
2019-04-04T15:49:25.626Z,46.40
2019-04-04T15:52:08.199Z,46.40
2019-04-04T15:54:45.381Z,46.40
2019-04-04T15:57:23.136Z,46.40
2019-04-04T16:00:13.079Z,46.40
2019-04-04T16:02:51.849Z,46.40
2019-04-04T16:05:31.778Z,46.30
2019-04-04T16:08:08.543Z,46.50
2019-04-04T16:10:46.467Z,46.60
2019-04-04T16:13:35.544Z,46.80
2019-04-04T16:16:35.584Z,46.60
2019-04-04T16:19:35.451Z,46.50
2019-04-04T16:22:30.247Z,46.40
2019-04-04T16:25:17.731Z,46.60
2019-04-04T16:28:00.189Z,46.50
2019-04-04T16:31:00.987Z,46.40
2019-04-04T16:34:12.832Z,46.40
2019-04-04T16:36:52.258Z,46.30
2019-04-04T16:43:09.876Z,46.30
2019-04-04T16:46:06.379Z,46.30
2019-04-04T16:48:56.177Z,46.30
2019-04-04T16:51:42.093Z,46.50
2019-04-04T16:54:26.316Z,46.30
2019-04-04T16:57:08.462Z,46.30
2019-04-04T16:59:45.803Z,46.40
2019-04-04T17:02:24.126Z,46.50
2019-04-04T17:05:02.535Z,46.50
2019-04-04T17:07:41.463Z,46.60
2019-04-04T17:10:19.262Z,46.60
2019-04-04T17:12:58.602Z,46.40
2019-04-04T17:15:39.785Z,46.30
2019-04-04T17:18:19.378Z,46.30
2019-04-04T17:20:57.845Z,46.30
2019-04-04T17:23:36.256Z,46.30
2019-04-04T17:26:17.041Z,46.30
2019-04-04T17:28:58.309Z,46.30
2019-04-04T17:31:37.825Z,46.30
2019-04-04T17:34:15.757Z,46.30
2019-04-04T17:36:54.146Z,46.20
2019-04-04T17:39:32.593Z,46.10
2019-04-04T17:42:10.999Z,46.20
2019-04-04T17:44:54.814Z,46.30
2019-04-04T17:47:32.783Z,46.20
2019-04-04T17:50:14.838Z,46.20
2019-04-04T17:52:53.932Z,46.10
2019-04-04T17:55:32.424Z,46.20
2019-04-04T17:58:12.959Z,46.10
2019-04-04T18:00:50.658Z,46.10
2019-04-04T18:03:27.987Z,46.30
2019-04-04T18:06:05.953Z,46.30
2019-04-04T18:08:45.333Z,46.30
2019-04-04T18:11:22.931Z,46.20
2019-04-04T18:14:00.788Z,46.20
2019-04-04T18:16:38.690Z,46.10
2019-04-04T18:19:16.137Z,46.20
2019-04-04T18:21:55.113Z,46.50
2019-04-04T18:24:32.195Z,46.40
2019-04-04T18:27:09.893Z,46.40
2019-04-04T18:29:49.481Z,46.40
2019-04-04T18:32:28.997Z,46.30
2019-04-04T18:35:04.824Z,46.30
2019-04-04T18:37:50.941Z,46.30
2019-04-04T18:40:21.428Z,46.30
2019-04-04T18:43:02.604Z,46.30
2019-04-04T18:45:40.494Z,46.30
2019-04-04T18:48:18.519Z,46.30
2019-04-04T18:50:55.913Z,46.30
2019-04-04T18:53:37.199Z,46.30
2019-04-04T18:56:15.203Z,46.30
2019-04-04T18:58:53.210Z,46.30
2019-04-04T19:01:31.013Z,46.30
2019-04-04T19:04:09.270Z,46.30
2019-04-04T19:06:53.800Z,46.30
2019-04-04T19:09:34.662Z,46.30
2019-04-04T19:12:12.874Z,46.30
2019-04-04T19:14:52.494Z,46.40
2019-04-04T19:17:30.560Z,46.40
2019-04-04T19:20:10.110Z,46.20
2019-04-04T19:22:48.693Z,46.20
2019-04-04T19:25:26.805Z,46.30
2019-04-04T19:28:05.686Z,46.30
2019-04-04T19:30:43.531Z,46.30
2019-04-04T19:33:21.741Z,46.30
2019-04-04T19:35:59.849Z,46.30
2019-04-04T19:38:38.274Z,46.30
2019-04-04T19:41:16.068Z,46.10
2019-04-04T19:43:54.379Z,46.20
2019-04-04T19:46:37.291Z,46.10
2019-04-04T19:49:12.334Z,46.10
2019-04-04T19:51:50.568Z,46.10
2019-04-04T19:54:27.544Z,46.20
2019-04-04T19:57:05.533Z,46.10
2019-04-04T19:59:45.074Z,46.20
2019-04-04T20:02:22.875Z,46.20
2019-04-04T20:05:03.473Z,46.20
2019-04-04T20:07:41.206Z,46.30
2019-04-04T20:10:19.350Z,46.40
2019-04-04T20:12:57.151Z,46.40
2019-04-04T20:15:35.667Z,46.30
2019-04-04T20:18:13.574Z,46.40
2019-04-04T20:20:51.002Z,46.50
2019-04-04T20:23:28.762Z,46.50
2019-04-04T20:26:06.050Z,46.40
2019-04-04T20:28:43.266Z,46.50
2019-04-04T20:31:20.575Z,46.60
2019-04-04T20:34:01.897Z,46.60
2019-04-04T20:36:38.690Z,46.50
2019-04-04T20:39:22.838Z,46.40
2019-04-04T20:42:00.639Z,46.50
2019-04-04T20:44:38.498Z,46.50
2019-04-04T20:47:16.403Z,46.40
2019-04-04T20:49:54.206Z,46.40
2019-04-04T20:52:32.008Z,46.50
2019-04-04T20:55:10.051Z,46.60
2019-04-04T20:57:47.237Z,46.70
2019-04-04T21:00:25.521Z,46.80
2019-04-04T21:03:03.016Z,46.60
2019-04-04T21:05:40.710Z,46.60
2019-04-04T21:08:19.030Z,46.70
2019-04-04T21:10:56.935Z,46.70
2019-04-04T21:13:34.431Z,46.70
2019-04-04T21:16:12.541Z,46.60
2019-04-04T21:18:50.078Z,46.60
2019-04-04T21:21:28.760Z,46.50
2019-04-04T21:24:06.257Z,46.60
2019-04-04T21:26:45.287Z,46.70
2019-04-04T21:29:23.704Z,46.70
2019-04-04T21:32:01.920Z,46.50
2019-04-04T21:34:40.283Z,46.60
2019-04-04T21:37:18.447Z,46.60
2019-04-04T21:39:57.372Z,46.50
2019-04-04T21:42:36.198Z,46.40
2019-04-04T21:45:15.498Z,46.40
2019-04-04T21:47:53.848Z,46.50
2019-04-04T21:50:32.067Z,46.40
2019-04-04T21:53:10.166Z,46.50
2019-04-04T21:55:48.482Z,46.60
2019-04-04T21:58:26.282Z,46.60
2019-04-04T22:01:04.788Z,46.60
2019-04-04T22:03:42.715Z,46.80
2019-04-04T22:06:20.604Z,46.80
2019-04-04T22:09:02.193Z,46.90
2019-04-04T22:11:41.530Z,47.00
2019-04-04T22:14:21.850Z,46.90
2019-04-04T22:16:58.466Z,47.60
2019-04-04T22:19:36.470Z,46.50
2019-04-04T22:22:13.481Z,46.90
2019-04-04T22:24:50.944Z,46.90
2019-04-04T22:27:29.256Z,46.80
2019-04-04T22:30:07.467Z,46.90
2019-04-04T22:32:45.369Z,46.80
2019-04-04T22:35:22.760Z,46.80
2019-04-04T22:38:00.766Z,46.80
2019-04-04T22:40:38.259Z,46.80
2019-04-04T22:43:15.754Z,46.90
2019-04-04T22:45:53.553Z,46.80
2019-04-04T22:48:31.200Z,46.80
2019-04-04T22:51:08.951Z,46.80
2019-04-04T22:53:46.547Z,46.80
2019-04-04T22:56:24.347Z,46.80
2019-04-04T22:59:03.378Z,46.80
2019-04-04T23:01:41.279Z,46.80
2019-04-04T23:04:19.451Z,46.80
2019-04-04T23:06:58.585Z,46.80
2019-04-04T23:09:35.912Z,46.80
2019-04-04T23:12:13.986Z,46.70
2019-04-04T23:14:51.583Z,46.80
2019-04-04T23:17:30.103Z,46.80
2019-04-04T23:20:09.163Z,46.90
2019-04-04T23:22:52.995Z,47.00
2019-04-04T23:25:27.302Z,47.00
2019-04-04T23:28:05.615Z,47.00
2019-04-04T23:30:43.725Z,47.00
2019-04-04T23:33:21.322Z,47.10
2019-04-04T23:40:39.015Z,47.10
2019-04-04T23:43:17.208Z,47.10
2019-04-04T23:45:50.550Z,47.50
2019-04-04T23:48:23.370Z,47.50
2019-04-04T23:50:56.157Z,47.50
2019-04-04T23:53:28.962Z,47.60
2019-04-04T23:56:01.758Z,47.50
2019-04-04T23:58:34.604Z,47.40
